createdAt,value
2018-02-25T00:00:02.819Z,39.60
2018-02-25T00:02:30.446Z,39.70
2018-02-25T00:04:58.004Z,39.70
2018-02-25T00:07:26.364Z,39.60
2018-02-25T00:09:53.923Z,39.60
2018-02-25T00:12:21.519Z,39.60
2018-02-25T00:14:49.846Z,39.60
2018-02-25T00:17:17.452Z,39.60
2018-02-25T00:19:45.047Z,39.70
2018-02-25T00:22:19.095Z,39.80
2018-02-25T00:24:47.437Z,39.90
2018-02-25T00:27:15.034Z,39.80
2018-02-25T00:29:42.595Z,39.90
2018-02-25T00:32:10.238Z,39.90
2018-02-25T00:34:37.947Z,39.80
2018-02-25T00:37:05.539Z,39.80
2018-02-25T00:39:33.871Z,40.00
2018-02-25T00:42:01.472Z,39.90
2018-02-25T00:44:29.045Z,39.90
2018-02-25T00:46:56.654Z,40.00
2018-02-25T00:49:24.992Z,40.00
2018-02-25T00:51:52.599Z,39.90
2018-02-25T00:54:20.968Z,40.10
2018-02-25T00:56:48.563Z,40.10
2018-02-25T00:59:16.895Z,40.00
2018-02-25T01:01:44.486Z,40.00
2018-02-25T01:04:12.046Z,39.90
2018-02-25T01:06:39.734Z,39.90
2018-02-25T01:09:07.796Z,39.80
2018-02-25T01:11:36.917Z,39.90
2018-02-25T01:14:06.614Z,39.80
2018-02-25T01:16:34.276Z,39.80
2018-02-25T01:19:01.867Z,40.20
2018-02-25T01:21:29.459Z,39.80
2018-02-25T01:23:57.570Z,39.80
2018-02-25T01:26:25.960Z,39.80
2018-02-25T01:28:53.532Z,39.80
2018-02-25T01:31:21.111Z,39.80
2018-02-25T01:33:48.679Z,39.80
2018-02-25T01:36:16.268Z,39.80
2018-02-25T01:38:45.023Z,39.90
2018-02-25T01:41:13.684Z,39.80
2018-02-25T01:43:43.780Z,39.80
2018-02-25T01:46:12.467Z,39.60
2018-02-25T01:48:40.632Z,40.00
2018-02-25T01:51:09.828Z,39.90
2018-02-25T01:53:39.653Z,40.00
2018-02-25T01:56:08.531Z,40.00
2018-02-25T01:58:36.650Z,39.80
2018-02-25T02:01:05.094Z,40.00
2018-02-25T02:03:33.440Z,40.20
2018-02-25T02:06:01.014Z,39.90
2018-02-25T02:08:28.621Z,40.00
2018-02-25T02:10:56.251Z,40.00
2018-02-25T02:13:24.063Z,40.00
2018-02-25T02:15:51.666Z,39.90
2018-02-25T02:18:19.251Z,40.00
2018-02-25T02:20:47.581Z,40.00
2018-02-25T02:23:15.202Z,40.00
2018-02-25T02:25:44.827Z,40.20
2018-02-25T02:28:12.937Z,40.10
2018-02-25T02:30:40.586Z,40.30
2018-02-25T02:33:09.004Z,40.40
2018-02-25T02:35:37.518Z,40.40
2018-02-25T02:38:05.247Z,40.90
2018-02-25T02:40:34.916Z,40.50
2018-02-25T02:43:03.371Z,40.50
2018-02-25T02:45:33.737Z,40.40
2018-02-25T02:48:02.495Z,40.60
2018-02-25T02:50:30.571Z,40.50
2018-02-25T02:52:58.775Z,40.60
2018-02-25T02:55:26.951Z,40.60
2018-02-25T02:57:55.185Z,40.60
2018-02-25T03:00:24.122Z,40.70
2018-02-25T03:02:52.402Z,40.70
2018-02-25T03:05:21.200Z,40.80
2018-02-25T03:07:49.569Z,40.70
2018-02-25T03:10:18.383Z,40.80
2018-02-25T03:12:47.506Z,40.80
2018-02-25T03:15:15.718Z,41.30
2018-02-25T03:17:44.068Z,40.80
2018-02-25T03:20:12.999Z,40.90
2018-02-25T03:22:41.089Z,40.90
2018-02-25T03:25:09.115Z,41.00
2018-02-25T03:27:37.521Z,41.00
2018-02-25T03:30:06.388Z,41.00
2018-02-25T03:32:35.327Z,40.90
2018-02-25T03:35:04.333Z,41.10
2018-02-25T03:37:33.382Z,41.60
2018-02-25T03:40:01.579Z,41.00
2018-02-25T03:42:29.581Z,41.10
2018-02-25T03:44:57.735Z,41.00
2018-02-25T03:47:26.479Z,41.10
2018-02-25T03:49:55.227Z,41.00
2018-02-25T03:52:23.452Z,41.10
2018-02-25T03:54:51.865Z,41.10
2018-02-25T03:57:20.468Z,41.20
2018-02-25T03:59:48.653Z,41.10
2018-02-25T04:02:18.587Z,41.20
2018-02-25T04:04:46.657Z,41.10
2018-02-25T04:07:14.853Z,41.20
2018-02-25T04:09:43.007Z,41.20
2018-02-25T04:12:11.803Z,41.20
2018-02-25T04:14:39.857Z,41.80
2018-02-25T04:17:07.996Z,41.20
2018-02-25T04:19:36.230Z,41.30
2018-02-25T04:22:04.532Z,41.40
2018-02-25T04:24:33.076Z,41.30
2018-02-25T04:27:01.280Z,41.30
2018-02-25T04:29:30.189Z,41.20
2018-02-25T04:31:58.505Z,41.30
2018-02-25T04:34:26.600Z,41.30
2018-02-25T04:36:54.547Z,41.30
2018-02-25T04:39:22.542Z,41.30
2018-02-25T04:41:51.247Z,41.50
2018-02-25T04:44:19.375Z,41.40
2018-02-25T04:46:48.206Z,41.40
2018-02-25T04:49:18.319Z,41.50
2018-02-25T04:51:46.512Z,41.40
2018-02-25T04:54:15.036Z,41.50
2018-02-25T04:56:44.019Z,41.50
2018-02-25T04:59:13.080Z,41.40
2018-02-25T05:01:41.208Z,41.40
2018-02-25T05:04:10.785Z,41.60
2018-02-25T05:06:38.694Z,41.50
2018-02-25T05:09:07.103Z,41.60
2018-02-25T05:11:36.194Z,41.60
2018-02-25T05:14:05.307Z,41.50
2018-02-25T05:16:33.896Z,41.70
2018-02-25T05:19:01.527Z,41.70
2018-02-25T05:21:30.441Z,41.80
2018-02-25T05:23:58.475Z,41.70
2018-02-25T05:26:27.216Z,41.70
2018-02-25T05:28:56.676Z,41.80
2018-02-25T05:31:25.800Z,41.80
2018-02-25T05:33:53.397Z,41.70
2018-02-25T05:36:21.718Z,41.80
2018-02-25T05:38:49.539Z,41.90
2018-02-25T05:41:17.332Z,41.90
2018-02-25T05:43:45.593Z,42.00
2018-02-25T05:46:14.720Z,42.00
2018-02-25T05:48:43.108Z,42.10
2018-02-25T05:51:11.643Z,42.10
2018-02-25T05:53:40.647Z,42.10
2018-02-25T05:56:09.683Z,42.20
2018-02-25T05:58:37.802Z,42.20
2018-02-25T06:01:05.370Z,42.30
2018-02-25T06:03:33.868Z,42.40
2018-02-25T06:06:02.262Z,42.50
2018-02-25T06:08:30.026Z,42.40
2018-02-25T06:10:57.607Z,42.50
2018-02-25T06:13:25.993Z,42.50
2018-02-25T06:15:54.967Z,42.60
2018-02-25T06:18:24.638Z,42.70
2018-02-25T06:20:52.988Z,42.50
2018-02-25T06:23:23.546Z,42.80
2018-02-25T06:25:51.985Z,42.80
2018-02-25T06:28:21.396Z,42.90
2018-02-25T06:30:52.468Z,42.90
2018-02-25T06:35:55.991Z,43.50
2018-02-25T06:38:24.394Z,43.20
2018-02-25T06:40:51.968Z,43.10
2018-02-25T06:43:19.590Z,43.20
2018-02-25T06:45:47.183Z,43.20
2018-02-25T06:48:14.808Z,43.30
2018-02-25T06:50:43.179Z,43.40
2018-02-25T06:53:11.546Z,43.40
2018-02-25T06:55:39.248Z,43.30
2018-02-25T06:58:07.592Z,43.40
2018-02-25T07:00:35.159Z,43.40
2018-02-25T07:03:02.721Z,43.50
2018-02-25T07:05:30.302Z,43.50
2018-02-25T07:07:57.934Z,43.50
2018-02-25T07:10:25.468Z,43.50
2018-02-25T07:12:53.033Z,43.50
2018-02-25T07:15:20.591Z,43.60
2018-02-25T07:17:48.176Z,43.70
2018-02-25T07:20:15.746Z,43.60
2018-02-25T07:22:43.336Z,43.50
2018-02-25T07:25:10.924Z,43.60
2018-02-25T07:27:38.900Z,43.60
2018-02-25T07:30:06.518Z,43.80
2018-02-25T07:32:34.075Z,43.80
2018-02-25T07:35:01.659Z,43.80
2018-02-25T07:37:29.213Z,43.90
2018-02-25T07:39:57.580Z,44.00
2018-02-25T07:42:25.220Z,44.00
2018-02-25T07:44:53.491Z,43.90
2018-02-25T07:47:21.086Z,43.80
2018-02-25T07:49:49.433Z,43.50
2018-02-25T07:52:17.041Z,43.40
2018-02-25T07:54:44.683Z,43.40
2018-02-25T07:57:12.243Z,43.30
2018-02-25T07:59:40.585Z,43.30
2018-02-25T08:02:08.169Z,43.30
2018-02-25T08:04:35.748Z,43.20
2018-02-25T08:07:03.312Z,43.00
2018-02-25T08:09:31.510Z,43.00
2018-02-25T08:11:59.169Z,43.00
2018-02-25T08:14:26.941Z,42.90
2018-02-25T08:16:54.520Z,42.70
2018-02-25T08:19:22.106Z,42.70
2018-02-25T08:21:49.658Z,43.00
2018-02-25T08:24:17.234Z,42.10
2018-02-25T08:26:44.809Z,41.90
2018-02-25T08:29:12.408Z,41.80
2018-02-25T08:31:40.765Z,41.40
2018-02-25T08:34:08.359Z,41.30
2018-02-25T08:36:35.986Z,41.00
2018-02-25T08:39:03.710Z,40.90
2018-02-25T08:41:31.892Z,40.50
2018-02-25T08:43:59.487Z,40.40
2018-02-25T08:46:27.816Z,40.00
2018-02-25T08:48:55.408Z,40.00
2018-02-25T08:51:22.975Z,39.90
2018-02-25T08:53:50.530Z,39.70
2018-02-25T08:56:18.155Z,39.30
2018-02-25T08:58:45.779Z,38.70
2018-02-25T09:01:13.402Z,38.50
2018-02-25T09:03:40.962Z,38.30
2018-02-25T09:06:08.518Z,37.50
2018-02-25T09:08:36.098Z,37.70
2018-02-25T09:11:03.658Z,37.60
2018-02-25T09:13:31.322Z,37.60
2018-02-25T09:15:58.949Z,37.20
2018-02-25T09:18:26.539Z,37.40
2018-02-25T09:20:54.115Z,36.80
2018-02-25T09:23:22.518Z,36.70
2018-02-25T09:25:50.081Z,36.40
2018-02-25T09:28:17.691Z,36.30
2018-02-25T09:30:46.017Z,35.70
2018-02-25T09:33:14.360Z,35.90
2018-02-25T09:35:41.905Z,35.80
2018-02-25T09:38:09.485Z,35.80
2018-02-25T09:40:37.149Z,35.50
2018-02-25T09:43:04.731Z,35.30
2018-02-25T09:45:32.307Z,35.20
2018-02-25T09:52:19.893Z,34.50
2018-02-25T09:55:50.652Z,34.90
2018-02-25T09:58:18.268Z,34.90
2018-02-25T10:00:45.866Z,34.70
2018-02-25T10:03:14.203Z,34.40
2018-02-25T10:05:41.860Z,35.00
2018-02-25T10:08:09.425Z,34.20
2018-02-25T10:10:38.293Z,33.80
2018-02-25T10:13:05.978Z,33.60
2018-02-25T10:15:35.065Z,33.60
2018-02-25T10:18:02.623Z,33.50
2018-02-25T10:20:30.257Z,33.40
2018-02-25T10:22:58.630Z,33.00
2018-02-25T10:25:30.469Z,33.60
2018-02-25T10:27:58.111Z,33.00
2018-02-25T10:30:25.694Z,33.20
2018-02-25T10:32:53.864Z,33.00
2018-02-25T10:35:21.491Z,33.10
2018-02-25T10:37:49.066Z,32.70
2018-02-25T10:40:17.418Z,32.40
2018-02-25T10:42:46.110Z,32.50
2018-02-25T10:45:13.701Z,31.90
2018-02-25T10:47:41.309Z,32.00
2018-02-25T10:50:09.755Z,31.40
2018-02-25T10:52:37.322Z,31.30
2018-02-25T10:55:04.878Z,31.40
2018-02-25T10:57:33.673Z,31.00
2018-02-25T11:00:01.487Z,30.90
2018-02-25T11:02:29.846Z,31.20
2018-02-25T11:04:59.400Z,30.50
2018-02-25T11:07:26.976Z,30.40
2018-02-25T11:09:55.315Z,30.40
2018-02-25T11:12:22.926Z,30.40
2018-02-25T11:14:50.479Z,30.50
2018-02-25T11:17:18.051Z,30.30
2018-02-25T11:19:46.096Z,30.30
2018-02-25T11:22:13.707Z,30.40
2018-02-25T11:24:41.321Z,30.00
2018-02-25T11:27:09.698Z,30.00
2018-02-25T11:29:38.505Z,29.90
2018-02-25T11:32:06.181Z,30.00
2018-02-25T11:34:34.613Z,29.90
2018-02-25T11:37:02.233Z,29.80
2018-02-25T11:39:29.818Z,29.60
2018-02-25T11:41:58.221Z,29.60
2018-02-25T11:44:26.595Z,29.70
2018-02-25T11:46:54.228Z,29.60
2018-02-25T11:49:21.855Z,29.80
2018-02-25T11:51:50.220Z,29.60
2018-02-25T11:54:18.456Z,29.50
2018-02-25T11:56:46.962Z,29.70
2018-02-25T11:59:14.520Z,30.00
2018-02-25T12:01:42.169Z,30.10
2018-02-25T12:04:10.491Z,29.70
2018-02-25T12:06:38.228Z,29.70
2018-02-25T12:09:06.594Z,28.90
2018-02-25T12:11:35.264Z,28.50
2018-02-25T12:14:02.896Z,28.30
2018-02-25T12:16:31.396Z,28.80
2018-02-25T12:18:59.735Z,29.10
2018-02-25T12:21:27.309Z,29.10
2018-02-25T12:23:54.875Z,28.70
2018-02-25T12:26:22.462Z,28.70
2018-02-25T12:28:50.035Z,28.80
2018-02-25T12:31:17.614Z,28.80
2018-02-25T12:33:45.183Z,28.10
2018-02-25T12:36:12.739Z,28.20
2018-02-25T12:38:40.348Z,28.50
2018-02-25T12:41:08.729Z,29.30
2018-02-25T12:43:37.479Z,29.10
2018-02-25T12:46:05.541Z,28.70
2018-02-25T12:48:33.501Z,28.30
2018-02-25T12:51:01.638Z,28.00
2018-02-25T12:53:29.666Z,27.80
2018-02-25T12:55:57.810Z,27.90
2018-02-25T12:58:25.420Z,27.90
2018-02-25T13:00:53.025Z,28.00
2018-02-25T13:03:21.125Z,27.70
2018-02-25T13:05:49.633Z,27.60
2018-02-25T13:08:17.214Z,27.50
2018-02-25T13:10:45.337Z,27.70
2018-02-25T13:13:12.974Z,28.00
2018-02-25T13:15:41.013Z,27.90
2018-02-25T13:18:08.742Z,28.20
2018-02-25T13:20:37.695Z,28.30
2018-02-25T13:23:05.391Z,28.20
2018-02-25T13:25:33.001Z,27.90
2018-02-25T13:28:01.053Z,27.60
2018-02-25T13:30:29.078Z,27.30
2018-02-25T13:32:57.567Z,27.10
2018-02-25T13:35:25.515Z,27.70
2018-02-25T13:37:54.080Z,27.50
2018-02-25T13:40:23.017Z,27.50
2018-02-25T13:42:51.203Z,27.60
2018-02-25T13:45:20.251Z,27.40
2018-02-25T13:47:48.384Z,27.30
2018-02-25T13:50:17.171Z,27.40
2018-02-25T13:52:45.287Z,27.20
2018-02-25T13:55:14.197Z,26.80
2018-02-25T13:57:42.155Z,26.70
2018-02-25T14:00:10.752Z,26.70
2018-02-25T14:02:38.647Z,26.70
2018-02-25T14:05:06.850Z,27.30
2018-02-25T14:07:37.533Z,27.10
2018-02-25T14:10:05.766Z,27.10
2018-02-25T14:12:34.187Z,27.00
2018-02-25T14:15:02.256Z,26.90
2018-02-25T14:17:30.002Z,26.50
2018-02-25T14:19:58.081Z,26.70
2018-02-25T14:22:26.325Z,27.00
2018-02-25T14:24:54.441Z,27.00
2018-02-25T14:27:22.692Z,27.00
2018-02-25T14:29:50.709Z,27.00
2018-02-25T14:32:18.383Z,27.40
2018-02-25T14:34:46.041Z,27.60
2018-02-25T14:37:14.414Z,27.60
2018-02-25T14:39:42.793Z,27.20
2018-02-25T14:42:10.411Z,27.20
2018-02-25T14:44:38.751Z,27.10
2018-02-25T14:47:07.105Z,27.10
2018-02-25T14:49:36.293Z,27.80
2018-02-25T14:52:05.639Z,27.70
2018-02-25T14:54:34.981Z,27.60
2018-02-25T14:57:03.749Z,27.80
2018-02-25T14:59:31.971Z,27.80
2018-02-25T15:02:00.757Z,27.70
2018-02-25T15:04:30.291Z,27.20
2018-02-25T15:06:58.549Z,27.10
2018-02-25T15:09:27.276Z,27.10
2018-02-25T15:11:55.417Z,26.90
2018-02-25T15:14:23.555Z,27.00
2018-02-25T15:16:51.753Z,27.30
2018-02-25T15:19:19.952Z,27.20
2018-02-25T15:21:48.134Z,27.40
2018-02-25T16:07:58.128Z,27.70
2018-02-25T16:10:25.902Z,29.40
2018-02-25T16:12:53.697Z,29.50
2018-02-25T16:15:22.459Z,29.40
2018-02-25T16:17:51.076Z,29.30
2018-02-25T16:20:18.642Z,29.70
2018-02-25T16:22:46.292Z,29.80
2018-02-25T16:25:13.872Z,29.90
2018-02-25T16:27:41.858Z,29.80
2018-02-25T16:30:09.970Z,29.90
2018-02-25T16:32:37.760Z,30.20
2018-02-25T16:35:05.459Z,30.40
2018-02-25T16:37:34.122Z,30.20
2018-02-25T16:40:01.823Z,30.20
2018-02-25T16:42:29.476Z,30.60
2018-02-25T16:44:57.068Z,30.20
2018-02-25T16:48:22.366Z,30.50
2018-02-25T16:50:49.962Z,30.20
2018-02-25T16:53:17.694Z,30.10
2018-02-25T16:55:46.034Z,30.10
2018-02-25T16:58:13.594Z,30.10
2018-02-25T17:00:41.246Z,30.10
2018-02-25T17:03:08.818Z,30.00
2018-02-25T17:05:36.404Z,30.10
2018-02-25T17:08:03.988Z,30.10
2018-02-25T17:10:31.555Z,30.30
2018-02-25T17:12:59.127Z,30.50
2018-02-25T17:15:26.819Z,30.70
2018-02-25T17:17:54.408Z,31.00
2018-02-25T17:20:22.735Z,31.40
2018-02-25T17:22:50.369Z,31.30
2018-02-25T17:25:18.712Z,31.40
2018-02-25T17:27:46.310Z,31.40
2018-02-25T17:30:13.871Z,31.50
2018-02-25T17:32:41.449Z,31.70
2018-02-25T17:35:09.075Z,31.90
2018-02-25T17:37:36.668Z,31.80
2018-02-25T17:40:04.248Z,32.00
2018-02-25T17:42:31.905Z,32.30
2018-02-25T17:44:59.546Z,32.40
2018-02-25T17:47:27.977Z,32.20
2018-02-25T17:49:55.553Z,32.20
2018-02-25T17:52:23.115Z,32.10
2018-02-25T17:54:50.792Z,32.20
2018-02-25T17:57:18.355Z,32.40
2018-02-25T17:59:45.995Z,32.70
2018-02-25T18:02:14.314Z,33.20
2018-02-25T18:04:41.887Z,33.10
2018-02-25T18:07:09.574Z,33.80
2018-02-25T18:09:37.245Z,34.40
2018-02-25T18:12:04.812Z,34.90
2018-02-25T18:14:32.371Z,35.20
2018-02-25T18:16:59.948Z,35.60
2018-02-25T18:19:27.503Z,35.80
2018-02-25T18:21:55.064Z,36.10
2018-02-25T18:24:23.385Z,36.70
2018-02-25T18:26:50.962Z,36.70
2018-02-25T18:29:18.526Z,36.70
2018-02-25T18:31:46.090Z,37.00
2018-02-25T18:34:13.706Z,37.20
2018-02-25T18:36:41.326Z,37.30
2018-02-25T18:39:08.911Z,37.90
2018-02-25T18:41:36.467Z,37.50
2018-02-25T18:44:04.034Z,37.70
2018-02-25T18:46:32.359Z,37.90
2018-02-25T18:48:59.925Z,37.90
2018-02-25T18:51:27.489Z,38.20
2018-02-25T18:53:55.043Z,38.10
2018-02-25T18:56:22.684Z,38.20
2018-02-25T18:58:50.348Z,38.30
2018-02-25T19:01:17.978Z,38.40
2018-02-25T19:03:45.575Z,39.20
2018-02-25T19:06:13.153Z,38.50
2018-02-25T19:08:40.737Z,38.50
2018-02-25T19:11:09.123Z,38.90
2018-02-25T19:13:36.746Z,38.80
2018-02-25T19:16:05.179Z,39.20
2018-02-25T19:18:32.753Z,39.20
2018-02-25T19:21:00.526Z,39.20
2018-02-25T19:23:28.103Z,39.20
2018-02-25T19:25:55.968Z,39.20
2018-02-25T19:28:23.979Z,39.10
2018-02-25T19:30:51.558Z,39.10
2018-02-25T19:33:19.177Z,39.20
2018-02-25T19:35:52.382Z,39.30
2018-02-25T19:38:25.925Z,39.50
2018-02-25T19:40:59.827Z,39.60
2018-02-25T19:43:27.566Z,39.60
2018-02-25T19:48:29.183Z,39.70
2018-02-25T19:50:56.940Z,39.80
2018-02-25T19:53:24.538Z,40.00
2018-02-25T19:55:52.100Z,40.00
2018-02-25T19:58:19.671Z,40.10
2018-02-25T20:00:47.320Z,40.30
2018-02-25T20:03:15.735Z,40.50
2018-02-25T20:05:43.339Z,40.50
2018-02-25T20:08:10.963Z,40.70
2018-02-25T20:10:39.309Z,41.10
2018-02-25T20:13:07.363Z,41.00
2018-02-25T20:15:35.380Z,41.00
2018-02-25T20:18:03.431Z,41.30
2018-02-25T20:20:31.512Z,41.20
2018-02-25T20:22:59.506Z,41.30
2018-02-25T20:25:27.568Z,41.50
2018-02-25T20:27:55.522Z,41.60
2018-02-25T20:30:23.564Z,41.70
2018-02-25T20:32:53.242Z,42.00
2018-02-25T20:35:21.322Z,42.00
2018-02-25T20:37:49.333Z,42.10
2018-02-25T20:40:16.990Z,42.40
2018-02-25T20:42:45.605Z,42.60
2018-02-25T20:45:13.174Z,42.80
2018-02-25T20:47:41.290Z,42.90
2018-02-25T20:50:09.544Z,43.10
2018-02-25T20:52:37.494Z,43.40
2018-02-25T20:55:05.586Z,43.60
2018-02-25T20:57:33.960Z,43.70
2018-02-25T21:00:03.109Z,43.60
2018-02-25T21:02:31.345Z,43.70
2018-02-25T21:04:59.721Z,43.90
2018-02-25T21:07:27.896Z,44.10
2018-02-25T21:09:56.687Z,44.40
2018-02-25T21:12:25.031Z,44.40
2018-02-25T21:14:53.143Z,44.40
2018-02-25T21:17:22.360Z,44.70
2018-02-25T21:19:50.894Z,44.80
2018-02-25T21:22:19.088Z,44.90
2018-02-25T21:24:48.036Z,45.30
2018-02-25T21:27:16.129Z,45.20
2018-02-25T21:29:44.279Z,45.40
2018-02-25T21:32:12.894Z,45.20
2018-02-25T21:34:42.023Z,45.50
2018-02-25T21:37:10.244Z,45.50
2018-02-25T21:39:38.388Z,45.60
2018-02-25T21:42:06.411Z,45.80
2018-02-25T21:44:35.345Z,46.00
2018-02-25T21:47:04.022Z,46.00
2018-02-25T21:49:32.407Z,46.00
2018-02-25T21:52:01.248Z,46.10
2018-02-25T21:54:35.108Z,46.30
2018-02-25T21:57:09.445Z,46.40
2018-02-25T21:59:43.908Z,46.50
2018-02-25T22:02:17.633Z,46.50
2018-02-25T22:04:46.669Z,46.70
2018-02-25T22:07:15.327Z,46.70
2018-02-25T22:09:43.469Z,46.70
2018-02-25T22:12:12.292Z,46.80
2018-02-25T22:14:40.648Z,46.70
2018-02-25T22:17:09.185Z,46.70
2018-02-25T22:19:36.988Z,47.00
2018-02-25T22:22:04.803Z,47.10
2018-02-25T22:24:32.883Z,47.10
2018-02-25T22:27:00.615Z,47.00
2018-02-25T22:29:29.115Z,47.20
2018-02-25T22:31:57.342Z,47.20
2018-02-25T22:34:25.467Z,47.50
2018-02-25T22:36:53.646Z,47.60
2018-02-25T22:39:23.025Z,48.00
2018-02-25T22:41:51.658Z,47.90
2018-02-25T22:44:20.623Z,47.80
2018-02-25T22:46:48.700Z,48.00
2018-02-25T22:49:16.768Z,48.00
2018-02-25T22:51:44.427Z,48.30
2018-02-25T22:54:12.757Z,48.20
2018-02-25T22:56:41.358Z,47.90
2018-02-25T22:59:09.747Z,48.20
2018-02-25T23:01:38.241Z,48.10
2018-02-25T23:04:07.350Z,48.10
2018-02-25T23:06:35.995Z,48.10
2018-02-25T23:09:04.231Z,48.10
2018-02-25T23:11:32.578Z,48.00
2018-02-25T23:14:01.559Z,48.10
2018-02-25T23:16:29.682Z,48.00
2018-02-25T23:18:58.987Z,48.00
2018-02-25T23:21:28.308Z,48.00
2018-02-25T23:23:57.075Z,48.00
2018-02-25T23:26:26.216Z,48.00
2018-02-25T23:28:54.616Z,47.90
2018-02-25T23:31:22.918Z,48.00
2018-02-25T23:33:50.827Z,48.30
2018-02-25T23:36:19.305Z,48.10
2018-02-25T23:38:47.700Z,48.70
2018-02-25T23:41:15.278Z,48.20
2018-02-25T23:43:42.859Z,48.40
2018-02-25T23:46:11.253Z,48.30
2018-02-25T23:48:39.414Z,48.30
2018-02-25T23:51:08.551Z,48.30
2018-02-25T23:53:37.052Z,48.30
2018-02-25T23:56:04.913Z,48.20
2018-02-25T23:58:34.757Z,48.30
